TimeEST,TemperatureF,Dew PointF,Humidity,Sea Level PressureIn,VisibilityMPH,Wind Direction,Wind SpeedMPH,Gust SpeedMPH,PrecipitationIn,Events,Conditions,WindDirDegrees,DateUTC
12:53 AM,23.0,15.1,72,30.16,10.0,SW,9.2,-,N/A,,Overcast,220,2013-01-03 05:53:00
1:53 AM,21.0,15.1,78,30.16,10.0,SW,3.5,-,N/A,,Overcast,230,2013-01-03 06:53:00
2:53 AM,21.0,14.0,74,30.16,10.0,SSW,4.6,-,N/A,,Overcast,210,2013-01-03 07:53:00
3:53 AM,19.9,12.0,71,30.14,10.0,SSW,5.8,-,N/A,,Overcast,210,2013-01-03 08:53:00
4:53 AM,19.0,9.0,65,30.11,10.0,SSW,8.1,-,N/A,,Overcast,200,2013-01-03 09:53:00
5:16 AM,19.4,8.6,63,30.07,10.0,SSW,5.8,-,N/A,,Overcast,210,2013-01-03 10:16:00
5:53 AM,18.0,9.0,68,30.10,10.0,SSW,6.9,-,N/A,,Overcast,200,2013-01-03 10:53:00
6:53 AM,18.0,9.0,68,30.09,10.0,SSW,8.1,-,0.00,,Overcast,210,2013-01-03 11:53:00
7:53 AM,19.0,9.0,65,30.07,10.0,SSW,8.1,-,N/A,,Overcast,200,2013-01-03 12:53:00
8:10 AM,19.4,8.6,63,30.04,10.0,SSW,9.2,-,N/A,,Overcast,210,2013-01-03 13:10:00
8:27 AM,19.4,10.4,68,30.04,10.0,SW,9.2,-,N/A,,Overcast,220,2013-01-03 13:27:00
8:53 AM,19.0,10.0,68,30.09,9.0,SSW,6.9,-,N/A,,Overcast,210,2013-01-03 13:53:00
9:40 AM,19.4,10.4,68,30.05,7.0,SW,8.1,-,N/A,,Overcast,220,2013-01-03 14:40:00
9:53 AM,19.9,12.0,71,30.09,7.0,SW,8.1,-,0.00,Snow,Light Snow,230,2013-01-03 14:53:00
10:53 AM,21.9,15.1,75,30.09,5.0,SW,6.9,-,0.00,,Haze,230,2013-01-03 15:53:00
11:53 AM,25.0,18.0,75,30.07,5.0,WSW,11.5,-,N/A,,Haze,240,2013-01-03 16:53:00
12:53 PM,26.1,19.0,75,30.06,6.0,WSW,10.4,-,N/A,,Haze,250,2013-01-03 17:53:00
1:53 PM,27.0,21.0,78,30.06,5.0,West,12.7,17.3,N/A,,Haze,260,2013-01-03 18:53:00
2:53 PM,28.0,21.9,78,30.06,4.0,West,10.4,-,N/A,,Haze,270,2013-01-03 19:53:00
3:53 PM,28.0,21.9,78,30.08,4.0,West,11.5,21.9,N/A,,Haze,260,2013-01-03 20:53:00
4:53 PM,28.9,23.0,78,30.10,4.0,West,10.4,-,N/A,,Haze,260,2013-01-03 21:53:00
5:53 PM,28.9,21.9,75,30.13,6.0,West,17.3,-,N/A,,Haze,280,2013-01-03 22:53:00
6:53 PM,28.0,21.0,75,30.16,6.0,WNW,13.8,-,N/A,,Haze,290,2013-01-03 23:53:00
7:53 PM,27.0,19.9,75,30.17,7.0,WNW,12.7,-,N/A,,Overcast,290,2013-01-04 00:53:00
8:53 PM,28.0,19.9,72,30.16,8.0,West,13.8,-,N/A,,Overcast,280,2013-01-04 01:53:00
9:53 PM,28.0,19.9,72,30.16,9.0,West,11.5,-,N/A,,Overcast,260,2013-01-04 02:53:00
10:53 PM,28.0,19.9,72,30.15,10.0,West,8.1,-,N/A,,Overcast,260,2013-01-04 03:53:00
11:53 PM,28.0,19.9,72,30.14,9.0,WSW,10.4,-,N/A,,Overcast,250,2013-01-04 04:53:00